Time;durP1;ratioP1;P1;durP2;ratioP2;P2;SDS_P1;SDS_P2;PMS_P1;PMS_P2;Temp;Humidity;BMP_temperature;BMP_pressure;BME280_temperature;BME280_humidity;BME280_pressure;Samples;Min_cycle;Max_cycle;Signal;HPM_P1;HPM_P2
2024/02/10 00:00:36;;;;;;;5.37;2.00;;;12.40;99.90;;;;;;5075872;28;20179;-85
2024/02/10 00:03:02;;;;;;;7.87;2.53;;;12.40;99.90;;;;;;5075812;28;20262;-86
2024/02/10 00:05:28;;;;;;;5.53;2.30;;;12.40;99.90;;;;;;5075885;28;20670;-88
2024/02/10 00:07:57;;;;;;;5.60;2.50;;;12.40;99.90;;;;;;5075867;28;20672;-85
2024/02/10 00:10:25;;;;;;;5.57;2.43;;;12.40;99.90;;;;;;5075681;28;20330;-85
2024/02/10 00:12:51;;;;;;;5.60;2.20;;;12.40;99.90;;;;;;5075757;28;20179;-84
2024/02/10 00:15:20;;;;;;;4.47;1.73;;;12.40;99.90;;;;;;5075722;28;20180;-84
2024/02/10 00:17:46;;;;;;;4.17;2.10;;;12.40;99.90;;;;;;5076078;28;20190;-91
2024/02/10 00:20:15;;;;;;;6.27;2.50;;;12.30;99.90;;;;;;5074993;28;20175;-85
2024/02/10 00:22:43;;;;;;;5.10;2.43;;;12.30;99.90;;;;;;5079497;28;20186;-85
2024/02/10 00:25:09;;;;;;;7.53;2.50;;;12.40;99.90;;;;;;5086588;28;20168;-84
2024/02/10 00:27:36;;;;;;;5.73;2.50;;;12.40;99.90;;;;;;5099809;28;20171;-83
2024/02/10 00:30:03;;;;;;;5.03;2.00;;;12.40;99.90;;;;;;5097684;28;20210;-83
2024/02/10 00:32:29;;;;;;;3.67;1.70;;;12.40;99.90;;;;;;5099381;28;20190;-84
2024/02/10 00:34:55;;;;;;;4.17;1.80;;;12.30;99.90;;;;;;5082966;28;20223;-84
2024/02/10 00:37:22;;;;;;;5.03;2.33;;;12.30;99.90;;;;;;5078948;28;20175;-86
2024/02/10 00:39:52;;;;;;;4.53;2.27;;;12.40;99.90;;;;;;5075929;28;20631;-85
2024/02/10 00:42:18;;;;;;;4.23;1.80;;;12.30;99.90;;;;;;5075372;28;20645;-84
2024/02/10 00:44:50;;;;;;;2.97;1.73;;;12.30;99.90;;;;;;5093429;28;20191;-84
2024/02/10 00:47:15;;;;;;;6.17;2.30;;;12.30;99.90;;;;;;5074548;28;20191;-84
2024/02/10 00:49:42;;;;;;;4.67;2.10;;;12.30;99.90;;;;;;5075440;28;20178;-85
2024/02/10 00:52:18;;;;;;;4.07;1.97;;;12.30;99.90;;;;;;5075022;28;20183;-85
2024/02/10 00:54:45;;;;;;;4.30;2.07;;;12.30;99.90;;;;;;5075333;28;20710;-84
2024/02/10 00:57:12;;;;;;;5.63;2.10;;;12.30;99.90;;;;;;5074696;28;20207;-85
2024/02/10 00:59:41;;;;;;;7.37;1.70;;;12.30;99.90;;;;;;5074459;28;20182;-84
2024/02/10 01:02:09;;;;;;;4.20;2.30;;;12.20;99.90;;;;;;5074796;28;20639;-84
2024/02/10 01:04:35;;;;;;;2.97;1.90;;;12.20;99.90;;;;;;5074930;28;20240;-85
2024/02/10 01:07:01;;;;;;;4.67;2.03;;;12.20;99.90;;;;;;5075472;28;20555;-84
2024/02/10 01:09:30;;;;;;;5.67;2.37;;;12.20;99.90;;;;;;5075674;28;20655;-84
2024/02/10 01:11:56;;;;;;;5.93;3.13;;;12.10;99.90;;;;;;5095656;28;20251;-84
2024/02/10 01:14:24;;;;;;;6.07;2.80;;;12.10;99.90;;;;;;5074746;28;20262;-84
2024/02/10 01:16:53;;;;;;;5.00;2.77;;;12.00;99.90;;;;;;5074891;28;20182;-85
2024/02/10 01:19:20;;;;;;;5.87;2.67;;;12.00;99.90;;;;;;5092876;28;20221;-85
2024/02/10 01:21:46;;;;;;;4.47;2.00;;;11.90;99.90;;;;;;5074974;28;20203;-91
2024/02/10 01:24:12;;;;;;;4.77;2.00;;;11.90;99.90;;;;;;5074850;28;20224;-84
2024/02/10 01:26:40;;;;;;;3.77;2.20;;;11.90;99.90;;;;;;5074887;28;20179;-84
2024/02/10 01:29:08;;;;;;;7.87;3.23;;;11.90;99.90;;;;;;5074702;28;20187;-84
2024/02/10 01:31:34;;;;;;;6.90;2.30;;;11.90;99.90;;;;;;5076674;28;20670;-86
2024/02/10 01:34:00;;;;;;;2.73;1.67;;;12.00;99.90;;;;;;5079096;28;20199;-86
2024/02/10 01:36:26;;;;;;;3.40;1.77;;;12.00;99.90;;;;;;5079043;28;20201;-84
2024/02/10 01:38:51;;;;;;;4.13;1.87;;;12.00;99.90;;;;;;5078492;28;20266;-83
2024/02/10 01:41:18;;;;;;;5.13;1.80;;;12.00;99.90;;;;;;5078794;28;20643;-84
2024/02/10 01:43:45;;;;;;;3.10;1.97;;;12.10;99.90;;;;;;5078422;28;20172;-84
2024/02/10 01:46:14;;;;;;;4.97;2.00;;;12.00;99.90;;;;;;5078376;28;20187;-84
2024/02/10 01:48:44;;;;;;;3.00;1.70;;;12.00;99.90;;;;;;5080459;28;20175;-83
2024/02/10 01:51:11;;;;;;;4.27;1.90;;;12.00;99.90;;;;;;5078253;28;20211;-85
2024/02/10 01:53:38;;;;;;;4.53;2.07;;;12.00;99.90;;;;;;5078134;28;20172;-84
2024/02/10 01:56:08;;;;;;;4.67;2.20;;;12.10;99.90;;;;;;5078565;28;20267;-84
2024/02/10 01:58:34;;;;;;;5.10;2.10;;;12.00;99.90;;;;;;5078156;28;20196;-84
2024/02/10 02:01:00;;;;;;;3.40;1.90;;;12.00;99.90;;;;;;5078157;28;20233;-84
2024/02/10 02:03:28;;;;;;;2.70;1.77;;;11.90;99.90;;;;;;5078241;28;20178;-84
2024/02/10 02:05:54;;;;;;;3.40;2.00;;;11.80;99.90;;;;;;5078088;28;20181;-84
2024/02/10 02:08:21;;;;;;;6.67;2.03;;;11.80;99.90;;;;;;5078328;28;20210;-84
2024/02/10 02:10:47;;;;;;;4.47;2.10;;;11.80;99.90;;;;;;5078067;28;20210;-84
2024/02/10 02:13:22;;;;;;;4.67;1.87;;;11.70;99.90;;;;;;5077859;28;20256;-87
2024/02/10 02:15:49;;;;;;;4.73;2.13;;;11.70;99.90;;;;;;5077803;28;20252;-84
2024/02/10 02:18:15;;;;;;;5.67;1.97;;;11.80;99.90;;;;;;5096131;28;20195;-84
2024/02/10 02:20:47;;;;;;;4.53;2.00;;;11.80;99.90;;;;;;5077954;28;20199;-84
2024/02/10 02:23:18;;;;;;;3.67;1.60;;;11.70;99.90;;;;;;5078605;28;20631;-85
2024/02/10 02:25:50;;;;;;;3.53;1.90;;;11.80;99.90;;;;;;5078545;28;20174;-83
2024/02/10 02:28:23;;;;;;;3.73;1.73;;;11.70;99.90;;;;;;5078894;28;20209;-84
2024/02/10 02:30:49;;;;;;;3.93;1.90;;;11.70;99.90;;;;;;5077679;28;20293;-89
2024/02/10 02:33:15;;;;;;;3.67;1.67;;;11.80;99.90;;;;;;5077639;28;20203;-87
2024/02/10 02:35:43;;;;;;;4.37;1.90;;;11.70;99.90;;;;;;5077796;28;20541;-83
2024/02/10 02:38:13;;;;;;;4.17;1.80;;;11.80;99.90;;;;;;5077822;28;20516;-88
2024/02/10 02:40:39;;;;;;;4.30;1.90;;;11.80;99.90;;;;;;5077552;28;20171;-82
2024/02/10 02:43:05;;;;;;;3.60;1.47;;;11.80;99.90;;;;;;5076054;28;20179;-83
2024/02/10 02:45:31;;;;;;;4.47;1.67;;;11.80;99.90;;;;;;5077396;28;20539;-84
2024/02/10 02:48:03;;;;;;;4.40;1.60;;;11.80;99.90;;;;;;5077385;28;20178;-85
2024/02/10 02:50:30;;;;;;;5.53;2.00;;;11.80;99.90;;;;;;5077327;28;20203;-84
2024/02/10 02:53:02;;;;;;;5.53;1.90;;;11.70;99.90;;;;;;5077292;28;20171;-85
2024/02/10 02:55:28;;;;;;;5.00;1.77;;;11.70;99.90;;;;;;5077430;28;20229;-84
2024/02/10 02:57:55;;;;;;;4.87;1.90;;;11.70;99.90;;;;;;5077353;28;20832;-83
2024/02/10 03:00:21;;;;;;;4.73;1.80;;;11.80;99.90;;;;;;5077049;28;20274;-88
2024/02/10 03:02:48;;;;;;;5.03;1.87;;;11.70;99.90;;;;;;5077084;28;20263;-84
2024/02/10 03:05:14;;;;;;;4.13;2.10;;;11.70;99.90;;;;;;5077159;28;20175;-84
2024/02/10 03:07:45;;;;;;;3.63;1.70;;;11.70;99.90;;;;;;5077414;28;20172;-85
2024/02/10 03:10:15;;;;;;;4.03;1.60;;;11.80;99.90;;;;;;5077189;28;20200;-84
2024/02/10 03:12:41;;;;;;;5.10;1.90;;;11.70;99.90;;;;;;5077262;28;20164;-84
2024/02/10 03:15:10;;;;;;;4.27;1.60;;;11.60;99.90;;;;;;5077099;28;20233;-85
2024/02/10 03:17:36;;;;;;;3.87;1.50;;;11.70;99.90;;;;;;5076825;28;20640;-84
2024/02/10 03:20:02;;;;;;;6.97;2.00;;;11.70;99.90;;;;;;5077228;28;20172;-85
2024/02/10 03:22:28;;;;;;;6.10;1.60;;;11.60;99.90;;;;;;5076914;28;20184;-85
2024/02/10 03:24:54;;;;;;;4.00;1.70;;;11.70;99.90;;;;;;5077142;28;20182;-85
2024/02/10 03:27:21;;;;;;;4.63;1.60;;;11.70;99.90;;;;;;5076627;28;20530;-84
2024/02/10 03:29:48;;;;;;;4.93;2.03;;;11.70;99.90;;;;;;5078223;28;20217;-83
2024/02/10 03:32:14;;;;;;;6.10;1.70;;;11.70;99.90;;;;;;5078998;28;20235;-84
2024/02/10 03:34:40;;;;;;;3.43;1.77;;;11.80;99.90;;;;;;5076871;28;20179;-83
2024/02/10 03:37:06;;;;;;;4.77;2.00;;;11.80;99.90;;;;;;5076975;28;20596;-85
2024/02/10 03:39:33;;;;;;;3.53;1.43;;;11.80;99.90;;;;;;5082795;28;20180;-83
2024/02/10 03:41:59;;;;;;;4.57;2.37;;;11.80;99.90;;;;;;5098922;28;20156;-83
2024/02/10 03:44:25;;;;;;;3.57;1.70;;;11.70;99.90;;;;;;5097825;28;20163;-83
2024/02/10 03:46:53;;;;;;;2.63;1.57;;;11.70;99.90;;;;;;5097957;28;20180;-84
2024/02/10 03:49:31;;;;;;;5.30;1.80;;;11.80;99.90;;;;;;5083293;28;20168;-84
2024/02/10 03:51:57;;;;;;;4.57;2.03;;;11.80;99.90;;;;;;5080129;28;20199;-83
2024/02/10 03:54:25;;;;;;;7.13;2.10;;;11.70;99.90;;;;;;5075920;28;20214;-84
2024/02/10 03:56:51;;;;;;;3.27;2.00;;;11.70;99.90;;;;;;5094340;28;20217;-84
2024/02/10 03:59:17;;;;;;;4.13;2.00;;;11.70;99.90;;;;;;5076090;28;20179;-83
2024/02/10 04:01:44;;;;;;;3.80;1.90;;;11.60;99.90;;;;;;5075757;28;20256;-85
2024/02/10 04:04:09;;;;;;;4.53;2.00;;;11.50;99.90;;;;;;5077446;28;20688;-85
2024/02/10 04:06:35;;;;;;;2.97;1.70;;;11.60;99.90;;;;;;5078474;28;20171;-84
2024/02/10 04:09:06;;;;;;;3.77;2.10;;;11.70;99.90;;;;;;5075508;28;20254;-83
2024/02/10 04:11:32;;;;;;;4.70;2.30;;;11.80;99.90;;;;;;5075530;28;20215;-83
2024/02/10 04:13:59;;;;;;;3.67;1.83;;;11.80;99.90;;;;;;5075963;28;20167;-84
2024/02/10 04:16:25;;;;;;;5.57;2.13;;;11.80;99.90;;;;;;5075432;28;20194;-86
2024/02/10 04:18:53;;;;;;;3.80;1.90;;;11.80;99.90;;;;;;5075467;28;20176;-84
2024/02/10 04:21:20;;;;;;;5.67;2.17;;;11.80;99.90;;;;;;5075673;28;20240;-84
2024/02/10 04:23:46;;;;;;;3.23;1.70;;;11.80;99.90;;;;;;5075063;28;20167;-83
2024/02/10 04:26:12;;;;;;;5.00;1.80;;;11.90;99.90;;;;;;5075714;28;20656;-84
2024/02/10 04:28:37;;;;;;;3.03;2.10;;;11.90;99.90;;;;;;5075306;28;20176;-83
2024/02/10 04:31:04;;;;;;;2.67;1.87;;;11.90;99.90;;;;;;5075466;28;20235;-85
2024/02/10 04:33:30;;;;;;;4.00;1.80;;;11.80;99.90;;;;;;5075115;28;20174;-84
2024/02/10 04:35:55;;;;;;;3.50;2.00;;;11.90;99.90;;;;;;5075482;28;20550;-83
2024/02/10 04:38:22;;;;;;;4.13;1.93;;;11.80;99.90;;;;;;5075014;28;20595;-84
2024/02/10 04:40:47;;;;;;;2.53;1.87;;;11.80;99.90;;;;;;5075252;28;20172;-84
2024/02/10 04:43:13;;;;;;;4.93;2.30;;;11.80;99.90;;;;;;5093110;28;20185;-83
2024/02/10 04:45:40;;;;;;;2.80;1.80;;;11.70;99.90;;;;;;5075462;28;20237;-84
2024/02/10 04:48:12;;;;;;;3.63;2.00;;;11.80;99.90;;;;;;5074906;28;20251;-84
2024/02/10 04:50:39;;;;;;;4.20;2.13;;;11.80;99.90;;;;;;5075451;28;20207;-83
2024/02/10 04:53:08;;;;;;;2.60;2.03;;;11.70;99.90;;;;;;5074750;28;20182;-84
2024/02/10 04:55:35;;;;;;;3.33;2.00;;;11.70;99.90;;;;;;5075440;28;20807;-84
2024/02/10 04:58:02;;;;;;;3.10;1.93;;;11.60;99.90;;;;;;5075211;28;20201;-90
2024/02/10 05:00:28;;;;;;;3.10;2.10;;;11.50;99.90;;;;;;5075305;28;20226;-84
2024/02/10 05:02:54;;;;;;;3.97;2.27;;;11.60;99.90;;;;;;5074988;28;20199;-85
2024/02/10 05:05:20;;;;;;;4.27;1.97;;;11.60;99.90;;;;;;5074463;28;20222;-89
2024/02/10 05:07:47;;;;;;;4.80;2.10;;;11.60;99.90;;;;;;5074685;28;20526;-84
2024/02/10 05:10:15;;;;;;;5.40;2.43;;;11.60;99.90;;;;;;5092871;28;20191;-84
2024/02/10 05:12:47;;;;;;;4.37;1.97;;;11.60;99.90;;;;;;5074943;28;20176;-84
2024/02/10 05:15:22;;;;;;;3.00;2.13;;;11.60;99.90;;;;;;5074978;28;20171;-84
2024/02/10 05:17:50;;;;;;;4.73;2.40;;;11.60;99.90;;;;;;5075019;28;20236;-84
2024/02/10 05:20:21;;;;;;;3.90;2.17;;;11.70;99.90;;;;;;5074908;28;20175;-84
2024/02/10 05:22:47;;;;;;;5.50;2.50;;;11.60;99.90;;;;;;5074780;28;20635;-84
2024/02/10 05:25:14;;;;;;;4.00;2.17;;;11.70;99.90;;;;;;5075159;28;20167;-83
2024/02/10 05:27:44;;;;;;;3.83;2.37;;;11.60;99.90;;;;;;5075379;28;20187;-83
2024/02/10 05:30:10;;;;;;;5.33;2.37;;;11.60;99.90;;;;;;5074804;28;20191;-84
2024/02/10 05:32:38;;;;;;;3.83;2.37;;;11.60;99.90;;;;;;5074737;28;20175;-83
2024/02/10 05:35:04;;;;;;;3.17;2.30;;;11.60;99.90;;;;;;5075029;28;20186;-83
2024/02/10 05:37:38;;;;;;;4.63;2.50;;;11.60;99.90;;;;;;5074664;28;20258;-84
2024/02/10 05:40:08;;;;;;;4.30;2.20;;;11.60;99.90;;;;;;5074850;28;20689;-85
2024/02/10 05:42:35;;;;;;;5.67;2.43;;;11.60;99.90;;;;;;5075145;28;20197;-85
2024/02/10 05:45:06;;;;;;;4.63;2.20;;;11.70;99.90;;;;;;5074938;28;20172;-84
2024/02/10 05:47:34;;;;;;;4.23;2.70;;;11.60;99.90;;;;;;5075195;28;20184;-83
2024/02/10 05:50:01;;;;;;;4.57;2.70;;;11.60;99.90;;;;;;5096529;28;20171;-85
2024/02/10 05:52:26;;;;;;;4.27;2.80;;;11.70;99.90;;;;;;5076615;28;20176;-89
2024/02/10 05:54:54;;;;;;;5.80;2.70;;;11.60;99.90;;;;;;5080036;28;20530;-85
2024/02/10 05:57:20;;;;;;;4.23;2.67;;;11.60;99.90;;;;;;5077807;28;20203;-84
2024/02/10 05:59:46;;;;;;;4.47;2.50;;;11.60;99.90;;;;;;5062193;28;20362;-88
2024/02/10 06:02:16;;;;;;;4.57;2.50;;;11.70;99.90;;;;;;5085175;28;20152;-84
2024/02/10 06:04:42;;;;;;;5.63;2.60;;;11.60;99.90;;;;;;5095018;28;20200;-84
2024/02/10 06:07:08;;;;;;;3.00;2.23;;;11.60;99.90;;;;;;5074524;28;20670;-85
2024/02/10 06:09:33;;;;;;;5.77;2.60;;;11.70;99.90;;;;;;5074570;28;20254;-84
2024/02/10 06:12:04;;;;;;;3.30;2.60;;;11.70;99.90;;;;;;5074562;28;20240;-84
2024/02/10 06:14:30;;;;;;;4.73;2.47;;;11.70;99.90;;;;;;5092478;28;20171;-84
2024/02/10 06:16:57;;;;;;;5.80;2.43;;;11.70;99.90;;;;;;5075272;28;20188;-84
2024/02/10 06:19:23;;;;;;;6.63;3.00;;;11.80;99.90;;;;;;5077743;28;20172;-83
2024/02/10 06:21:49;;;;;;;6.47;3.10;;;11.70;99.90;;;;;;5078186;28;20235;-83
2024/02/10 06:24:16;;;;;;;4.53;2.83;;;11.70;99.90;;;;;;5078073;28;20585;-84
2024/02/10 06:26:42;;;;;;;4.27;2.47;;;11.80;99.90;;;;;;5077668;28;20217;-84
2024/02/10 06:29:07;;;;;;;5.70;2.37;;;11.80;99.90;;;;;;5077714;28;20266;-83
2024/02/10 06:31:33;;;;;;;7.63;2.70;;;11.80;99.90;;;;;;5077594;28;20679;-84
2024/02/10 06:34:00;;;;;;;5.17;2.83;;;11.70;99.90;;;;;;5077415;28;20175;-85
2024/02/10 06:36:26;;;;;;;5.00;2.60;;;11.70;99.90;;;;;;5077683;28;20315;-83
2024/02/10 06:38:53;;;;;;;5.00;2.63;;;11.70;99.90;;;;;;5077657;28;20262;-85
2024/02/10 06:41:19;;;;;;;4.03;2.80;;;11.70;99.90;;;;;;5077738;28;20195;-84
2024/02/10 06:43:44;;;;;;;4.77;2.80;;;11.80;99.90;;;;;;5077803;28;20260;-84
2024/02/10 06:46:13;;;;;;;4.37;2.60;;;11.80;99.90;;;;;;5077274;28;20180;-84
2024/02/10 06:48:41;;;;;;;4.57;3.10;;;11.70;99.90;;;;;;5078059;28;20182;-83
2024/02/10 06:51:08;;;;;;;4.17;2.77;;;11.80;99.90;;;;;;5077854;28;20215;-88
2024/02/10 06:53:35;;;;;;;6.17;2.90;;;11.90;99.90;;;;;;5077331;28;20262;-87
2024/02/10 06:56:02;;;;;;;6.30;2.77;;;11.90;99.90;;;;;;5095578;28;20163;-84
2024/02/10 06:58:29;;;;;;;5.80;3.00;;;11.90;99.90;;;;;;5077158;28;20280;-85
2024/02/10 07:00:58;;;;;;;4.30;2.67;;;11.90;99.90;;;;;;5076965;28;20670;-84
2024/02/10 07:03:23;;;;;;;5.63;2.90;;;11.90;99.90;;;;;;5076715;28;20176;-85
2024/02/10 07:05:49;;;;;;;4.80;2.80;;;12.10;99.90;;;;;;5077302;28;20260;-85
2024/02/10 07:08:19;;;;;;;5.87;3.17;;;12.00;99.90;;;;;;5077317;28;20589;-85
2024/02/10 07:10:48;;;;;;;7.07;2.70;;;12.10;99.90;;;;;;5076809;28;20414;-84
2024/02/10 07:13:14;;;;;;;3.90;3.10;;;12.30;99.90;;;;;;5076648;28;20250;-83
2024/02/10 07:15:41;;;;;;;5.97;3.47;;;12.10;99.90;;;;;;5076601;28;20247;-83
2024/02/10 07:18:07;;;;;;;5.67;3.03;;;12.00;99.90;;;;;;5076155;28;20202;-85
2024/02/10 07:20:34;;;;;;;6.07;3.13;;;12.10;99.90;;;;;;5076585;28;20203;-85
2024/02/10 07:23:03;;;;;;;6.50;3.40;;;12.10;99.90;;;;;;5094638;28;20160;-84
2024/02/10 07:25:33;;;;;;;5.50;2.87;;;12.00;99.90;;;;;;5077260;28;20213;-84
2024/02/10 07:28:04;;;;;;;4.43;3.10;;;12.00;99.90;;;;;;5076416;28;20191;-85
2024/02/10 07:30:31;;;;;;;6.10;3.13;;;12.10;99.90;;;;;;5076305;28;20243;-85
2024/02/10 07:33:03;;;;;;;5.93;3.70;;;12.00;99.90;;;;;;5076214;28;20181;-85
2024/02/10 07:35:31;;;;;;;9.90;3.73;;;12.10;99.90;;;;;;5076421;28;20655;-84
2024/02/10 07:37:57;;;;;;;4.63;3.13;;;12.20;99.90;;;;;;5076331;28;20261;-83
2024/02/10 07:40:22;;;;;;;4.10;3.20;;;12.20;99.90;;;;;;5094322;28;20305;-85
2024/02/10 07:42:52;;;;;;;5.27;3.43;;;12.30;99.90;;;;;;5075853;28;20179;-84
2024/02/10 07:45:18;;;;;;;4.63;3.30;;;12.40;99.90;;;;;;5075823;28;20182;-83
2024/02/10 07:47:46;;;;;;;5.67;3.10;;;12.50;99.90;;;;;;5076024;28;20179;-84
2024/02/10 07:50:13;;;;;;;6.30;3.63;;;12.50;99.90;;;;;;5076118;28;20197;-85
2024/02/10 07:52:41;;;;;;;5.07;3.17;;;12.50;99.90;;;;;;5075911;28;20279;-87
2024/02/10 07:55:12;;;;;;;6.20;4.00;;;12.60;99.90;;;;;;5076177;28;20203;-84
2024/02/10 07:57:39;;;;;;;6.03;3.60;;;12.60;99.90;;;;;;5075678;28;20276;-85
2024/02/10 08:00:06;;;;;;;7.00;3.90;;;12.70;99.90;;;;;;5075991;28;20555;-85
2024/02/10 08:02:32;;;;;;;4.87;3.83;;;12.70;99.90;;;;;;5075121;28;20271;-83
2024/02/10 08:04:58;;;;;;;5.80;3.87;;;12.70;99.90;;;;;;5076185;28;20169;-85
2024/02/10 08:07:29;;;;;;;6.97;3.73;;;12.60;99.90;;;;;;5085765;28;20171;-88
2024/02/10 08:09:56;;;;;;;5.00;3.63;;;12.50;99.90;;;;;;5095894;28;20248;-84
2024/02/10 08:12:25;;;;;;;7.50;3.87;;;12.50;99.90;;;;;;5075770;28;20258;-85
2024/02/10 08:14:55;;;;;;;5.23;3.80;;;12.50;99.90;;;;;;5075727;28;20168;-85
2024/02/10 08:17:24;;;;;;;6.37;3.63;;;12.60;99.90;;;;;;5075336;28;20179;-84
2024/02/10 08:19:59;;;;;;;5.70;4.20;;;12.50;99.90;;;;;;5075416;28;20559;-84
2024/02/10 08:22:34;;;;;;;7.97;4.30;;;12.60;99.90;;;;;;5075353;28;20253;-85
2024/02/10 08:25:02;;;;;;;5.67;3.67;;;12.80;99.90;;;;;;5075303;28;20176;-83
2024/02/10 08:27:30;;;;;;;6.67;3.93;;;12.70;99.90;;;;;;5075254;28;20656;-86
2024/02/10 08:29:57;;;;;;;5.67;3.60;;;12.70;99.90;;;;;;5075547;28;20172;-84
2024/02/10 08:32:23;;;;;;;6.00;3.43;;;12.70;99.90;;;;;;5074958;28;20832;-85
2024/02/10 08:34:51;;;;;;;8.10;3.63;;;12.70;99.90;;;;;;5074960;28;20250;-86
2024/02/10 08:37:16;;;;;;;6.47;3.67;;;12.80;99.90;;;;;;5075424;28;20705;-85
2024/02/10 08:39:44;;;;;;;6.30;3.47;;;12.70;99.90;;;;;;5075136;28;20168;-85
2024/02/10 08:42:14;;;;;;;5.40;3.53;;;12.80;99.90;;;;;;5074544;28;20178;-87
2024/02/10 08:44:40;;;;;;;5.53;3.23;;;12.70;99.90;;;;;;5074697;28;20235;-85
2024/02/10 08:47:06;;;;;;;7.47;3.33;;;12.80;99.90;;;;;;5075089;28;20219;-85
2024/02/10 08:49:34;;;;;;;5.40;3.07;;;12.90;99.90;;;;;;5093184;28;20188;-86
2024/02/10 08:52:02;;;;;;;7.70;3.73;;;13.00;99.90;;;;;;5074914;28;20675;-85
2024/02/10 08:54:30;;;;;;;5.60;3.53;;;13.10;99.90;;;;;;5074885;28;20177;-84
2024/02/10 08:57:00;;;;;;;5.83;3.10;;;13.00;99.90;;;;;;5074784;28;20639;-85
2024/02/10 08:59:31;;;;;;;5.83;3.10;;;13.10;99.90;;;;;;5074087;28;20212;-85
2024/02/10 09:02:04;;;;;;;6.00;3.47;;;13.10;99.90;;;;;;5074762;28;20177;-84
2024/02/10 09:04:30;;;;;;;6.83;3.50;;;13.20;99.90;;;;;;5075194;28;20174;-83
2024/02/10 09:07:00;;;;;;;6.40;3.37;;;13.20;99.90;;;;;;5074955;28;20174;-85
2024/02/10 09:09:30;;;;;;;5.47;3.07;;;13.40;99.90;;;;;;5074217;28;20172;-86
2024/02/10 09:11:56;;;;;;;9.03;3.77;;;13.50;99.90;;;;;;5074534;28;20208;-86
2024/02/10 09:14:22;;;;;;;6.37;3.23;;;13.50;99.90;;;;;;5074622;28;20526;-84
2024/02/10 09:16:48;;;;;;;6.30;3.33;;;13.60;99.90;;;;;;5092888;28;20332;-86
2024/02/10 09:19:16;;;;;;;7.67;3.30;;;13.60;99.90;;;;;;5075098;28;20195;-84
2024/02/10 09:21:44;;;;;;;6.10;3.73;;;13.70;99.90;;;;;;5074858;28;20419;-90
2024/02/10 09:24:13;;;;;;;8.57;4.70;;;13.70;99.90;;;;;;5074435;28;20178;-85
2024/02/10 09:26:43;;;;;;;9.67;5.10;;;13.60;99.90;;;;;;5074578;28;20176;-85
2024/02/10 09:29:08;;;;;;;9.07;5.73;;;13.60;99.90;;;;;;5074241;28;20176;-84
2024/02/10 09:31:34;;;;;;;6.50;4.70;;;13.60;99.90;;;;;;5074681;28;20642;-86
2024/02/10 09:34:04;;;;;;;6.63;4.30;;;13.70;99.90;;;;;;5074205;28;20174;-85
2024/02/10 09:36:32;;;;;;;7.10;4.80;;;13.70;99.90;;;;;;5074702;28;20249;-87
2024/02/10 09:38:57;;;;;;;9.80;4.90;;;13.60;99.90;;;;;;5092456;28;20213;-85
2024/02/10 09:41:24;;;;;;;5.60;4.00;;;13.60;99.90;;;;;;5074474;28;20636;-85
2024/02/10 09:43:50;;;;;;;6.43;4.03;;;13.70;99.90;;;;;;5091666;28;20177;-84
2024/02/10 09:46:15;;;;;;;6.53;4.53;;;13.80;99.90;;;;;;5074197;28;20292;-84
2024/02/10 09:48:50;;;;;;;6.93;4.50;;;13.80;99.90;;;;;;5074323;28;20271;-84
2024/02/10 09:51:16;;;;;;;6.77;4.60;;;13.90;99.90;;;;;;5074274;28;20206;-84
2024/02/10 09:53:42;;;;;;;6.53;4.20;;;14.00;99.90;;;;;;5078601;28;20225;-84
2024/02/10 09:56:15;;;;;;;5.07;3.87;;;14.00;99.90;;;;;;5077883;28;20178;-85
2024/02/10 09:58:44;;;;;;;5.03;3.23;;;14.10;99.90;;;;;;5077801;28;20186;-85
2024/02/10 10:01:10;;;;;;;6.33;4.57;;;14.20;99.90;;;;;;5077480;28;20580;-84
2024/02/10 10:03:39;;;;;;;6.77;4.43;;;14.30;99.90;;;;;;5077718;28;20175;-85
2024/02/10 10:06:09;;;;;;;5.27;3.23;;;14.20;99.90;;;;;;5077945;28;20170;-84
2024/02/10 10:08:37;;;;;;;4.90;2.97;;;14.00;99.90;;;;;;5077805;28;20178;-85
2024/02/10 10:11:07;;;;;;;5.10;2.57;;;14.10;99.90;;;;;;5077781;28;20211;-85
2024/02/10 10:13:40;;;;;;;8.17;3.33;;;14.10;99.90;;;;;;5095489;28;20250;-86
2024/02/10 10:16:09;;;;;;;5.57;2.77;;;14.10;99.90;;;;;;5077689;28;20189;-85
2024/02/10 10:18:35;;;;;;;4.77;2.80;;;13.90;99.90;;;;;;5077791;28;20177;-86
2024/02/10 10:21:06;;;;;;;4.93;3.70;;;14.00;99.90;;;;;;5078538;28;20255;-85
2024/02/10 10:23:35;;;;;;;6.10;3.00;;;14.10;99.90;;;;;;5077911;28;20163;-85
2024/02/10 10:26:02;;;;;;;6.33;3.33;;;14.30;99.90;;;;;;5077730;28;20176;-86
2024/02/10 10:28:32;;;;;;;3.60;2.40;;;14.30;99.90;;;;;;5082402;28;20176;-85
2024/02/10 10:30:59;;;;;;;3.30;2.40;;;14.40;99.90;;;;;;5078915;28;20210;-85
2024/02/10 10:33:26;;;;;;;4.77;2.80;;;14.50;99.90;;;;;;5077422;28;20258;-85
2024/02/10 10:35:54;;;;;;;5.93;3.03;;;14.50;99.90;;;;;;5076994;28;20179;-85
2024/02/10 10:38:23;;;;;;;3.67;2.77;;;14.60;99.00;;;;;;5077074;28;20167;-86
2024/02/10 10:40:53;;;;;;;6.57;2.97;;;14.70;99.60;;;;;;5094906;28;20248;-84
2024/02/10 10:43:24;;;;;;;4.37;2.77;;;15.00;98.60;;;;;;5077520;28;20212;-85
2024/02/10 10:45:50;;;;;;;5.60;3.53;;;15.10;96.30;;;;;;5077120;28;20634;-85
2024/02/10 10:48:15;;;;;;;4.60;3.17;;;15.10;95.10;;;;;;5077119;28;20235;-87
2024/02/10 10:50:41;;;;;;;6.27;3.30;;;15.20;94.30;;;;;;5077028;28;20201;-87
2024/02/10 10:53:09;;;;;;;5.30;3.10;;;15.40;93.40;;;;;;5095488;28;20166;-89
2024/02/10 10:55:43;;;;;;;5.77;3.07;;;15.60;92.80;;;;;;5094721;28;20163;-84
2024/02/10 10:58:23;;;;;;;5.47;2.80;;;15.60;88.70;;;;;;5076681;28;20199;-87
2024/02/10 11:00:50;;;;;;;4.93;2.70;;;15.50;88.50;;;;;;5076161;28;20211;-87
2024/02/10 11:03:17;;;;;;;6.60;3.13;;;15.70;86.50;;;;;;5075573;28;20247;-84
2024/02/10 11:05:49;;;;;;;5.00;2.47;;;15.80;84.30;;;;;;5076542;28;20541;-86
2024/02/10 11:08:25;;;;;;;6.07;2.60;;;15.80;80.80;;;;;;5095370;28;20212;-86
2024/02/10 11:10:58;;;;;;;4.10;2.70;;;15.90;79.50;;;;;;5094311;28;20261;-86
2024/02/10 11:13:28;;;;;;;5.77;2.60;;;16.00;77.70;;;;;;5076476;28;20170;-85
2024/02/10 11:16:13;;;;;;;9.93;3.10;;;15.90;74.30;;;;;;5075993;28;20199;-86
2024/02/10 11:18:39;;;;;;;5.73;2.93;;;15.90;77.40;;;;;;5076751;28;20184;-85
2024/02/10 11:21:21;;;;;;;7.60;3.10;;;15.90;77.80;;;;;;5076349;28;20167;-85
2024/02/10 11:24:15;;;;;;;6.97;3.33;;;16.00;76.80;;;;;;5076705;28;20184;-86
2024/02/10 11:26:41;;;;;;;5.43;2.63;;;16.10;77.50;;;;;;5094837;28;20167;-85
2024/02/10 11:29:18;;;;;;;6.77;3.00;;;16.00;75.20;;;;;;5076790;28;20199;-84
2024/02/10 11:31:45;;;;;;;4.70;2.97;;;16.00;76.30;;;;;;5076301;28;20256;-86
2024/02/10 11:34:16;;;;;;;3.73;2.93;;;16.00;76.20;;;;;;5076310;28;20701;-85
2024/02/10 11:36:56;;;;;;;4.20;2.70;;;16.10;77.60;;;;;;5076297;28;20178;-85
2024/02/10 11:39:25;;;;;;;4.10;2.80;;;16.20;75.00;;;;;;5076051;28;20182;-86
2024/02/10 11:41:58;;;;;;;5.83;2.50;;;16.40;72.20;;;;;;5075780;28;20642;-87
2024/02/10 11:44:26;;;;;;;5.20;2.70;;;16.10;68.90;;;;;;5076075;28;20258;-86
2024/02/10 11:46:52;;;;;;;3.73;2.37;;;15.90;62.60;;;;;;5075830;28;20208;-84
2024/02/10 11:49:18;;;;;;;5.20;2.60;;;15.60;65.80;;;;;;5076074;28;20186;-87
2024/02/10 11:51:44;;;;;;;4.27;1.93;;;15.70;61.40;;;;;;5075376;28;20622;-85
2024/02/10 11:54:10;;;;;;;3.20;1.83;;;15.70;62.40;;;;;;5093574;28;20604;-84
2024/02/10 11:56:36;;;;;;;3.23;2.03;;;15.50;60.00;;;;;;5075789;28;20183;-85
2024/02/10 11:59:05;;;;;;;5.57;2.20;;;15.40;62.60;;;;;;5075553;28;20204;-86
2024/02/10 12:01:33;;;;;;;3.47;1.97;;;15.60;61.20;;;;;;5075754;28;20559;-86
2024/02/10 12:04:05;;;;;;;4.30;2.60;;;15.90;59.10;;;;;;5075455;28;20199;-85
2024/02/10 12:06:32;;;;;;;2.90;1.90;;;16.00;56.80;;;;;;5093780;28;20212;-87
2024/02/10 12:08:59;;;;;;;4.47;2.40;;;15.80;53.80;;;;;;5075246;28;20217;-86
2024/02/10 12:11:26;;;;;;;6.00;2.57;;;16.00;52.00;;;;;;5075257;28;20201;-85
2024/02/10 12:13:56;;;;;;;5.87;2.70;;;16.10;46.50;;;;;;5075296;28;20213;-86
2024/02/10 12:16:23;;;;;;;4.83;2.40;;;16.30;43.70;;;;;;5075365;28;20182;-85
2024/02/10 12:18:49;;;;;;;4.83;2.80;;;16.20;41.10;;;;;;5075216;28;20274;-86
2024/02/10 12:21:19;;;;;;;4.40;2.30;;;16.30;40.40;;;;;;5075454;28;20315;-86
2024/02/10 12:23:48;;;;;;;6.17;2.23;;;16.30;40.50;;;;;;5074884;28;20207;-86
2024/02/10 12:26:15;;;;;;;6.40;1.97;;;15.90;42.50;;;;;;5075193;28;20187;-87
2024/02/10 12:28:41;;;;;;;3.90;1.97;;;15.60;46.90;;;;;;5074966;28;20175;-85
2024/02/10 12:31:07;;;;;;;3.27;1.50;;;15.60;50.60;;;;;;5074864;28;20225;-84
2024/02/10 12:33:34;;;;;;;5.13;1.80;;;15.60;48.60;;;;;;5074983;28;20263;-85
2024/02/10 12:36:00;;;;;;;4.20;1.73;;;15.90;46.20;;;;;;5075310;28;20174;-86
2024/02/10 12:38:26;;;;;;;3.60;1.80;;;16.10;43.20;;;;;;5075125;28;20246;-87
2024/02/10 12:40:55;;;;;;;3.70;1.80;;;16.30;37.10;;;;;;5074814;28;20641;-85
2024/02/10 12:43:23;;;;;;;4.50;1.80;;;16.50;30.90;;;;;;5075143;28;20187;-85
2024/02/10 12:45:52;;;;;;;3.20;1.87;;;16.40;28.00;;;;;;5075464;28;20173;-84
2024/02/10 12:48:18;;;;;;;4.77;2.90;;;16.40;28.10;;;;;;5075434;28;20181;-85
2024/02/10 12:50:47;;;;;;;5.23;2.40;;;16.30;28.60;;;;;;5074681;28;20194;-86